Forside
METAR-TAF:

METAR-TAF

Lufthavne :

New Delhi, Indien

Breddekreds: 28-34N, længdekreds: 077-07E, højde: 220 m

Aktuelle vejr

Denne rapport blev lavet for 19 minutter siden, kl. 20:00 UTC
Vind stille
Temperatur 9°C
Fugtighed 81%
Tryk 1020 hPa
Sigt: 1600 m
Nogle få skyer i en højde af 10000 ft
dis

METAR: VIDP 172000Z 00000KT 1600 R28/P2000 R29/P2000 BR FEW100 09/06 Q1020 NOSIG

Tid: 01:49 (20:19 UTC)

Vejrudsigter

Denne rapport blev lavet for 3 timer og 19 minutter siden, kl. 17:00 UTC
Foreløbig gælder fra 17 på 18 UTC til 18 på 24 UTC
Vind 2 kt fra varierende retninger
Sigt: 1800 m
Spredte skyer i en højde af 10000 ft
røg, dis
ændring
fra 18 på 00 UTC til 18 på 02 UTC
Sigt: 0800 m
Let tåge
ændring
fra 18 på 09 UTC til 18 på 11 UTC
Vind 6 kt fra nordnordvest
Sigt: 2200 m
røg, tåge/dis
ændring
fra 18 på 21 UTC til 18 på 23 UTC
Vind kt fra nord
Sigt: 1500 m
dis

TAF: VIDP 171700Z 1718/1824 VRB02KT 1800 FU BR SCT100 BECMG 1800/1802 0800 MIFG NSC BECMG 1809/1811 33006KT 2200 FU HZ BECMG 1821/1823 00000KT 1500 BR

Vejrobservationer og prognoser fra mere end 4000 lufthavne (METAR og TAF).

De gule og røde prikker repræsenterer de meteorologiske stationer.

Flyt musen over at se navnet på stationen.

Så klik over at se vejr observationer og prognoser.

At skifte det kort: Klik på de grønne knapper med et sort kors for at zoome ind; på den grønne knap med en bindestreg for at zoome ud; eller på de grønne pile for tilstødende kort.


METAR-TAF: